sensor_id;sensor_type;location;lat;lon;timestamp;P1;durP1;ratioP1;P2;durP2;ratioP2
11422;SDS011;5768;51.476;7.210;2022-11-15T00:01:15;6.70;;;5.57;;
11422;SDS011;5768;51.476;7.210;2022-11-15T00:06:20;6.50;;;5.50;;
11422;SDS011;5768;51.476;7.210;2022-11-15T00:11:23;7.77;;;5.57;;
11422;SDS011;5768;51.476;7.210;2022-11-15T00:16:26;6.30;;;5.70;;
11422;SDS011;5768;51.476;7.210;2022-11-15T00:21:29;6.20;;;5.53;;
11422;SDS011;5768;51.476;7.210;2022-11-15T00:26:31;5.57;;;5.07;;
11422;SDS011;5768;51.476;7.210;2022-11-15T00:31:34;5.73;;;4.90;;
11422;SDS011;5768;51.476;7.210;2022-11-15T00:36:37;5.57;;;4.70;;
11422;SDS011;5768;51.476;7.210;2022-11-15T00:41:39;6.07;;;5.13;;
11422;SDS011;5768;51.476;7.210;2022-11-15T00:46:42;7.77;;;5.60;;
11422;SDS011;5768;51.476;7.210;2022-11-15T00:51:45;6.73;;;5.17;;
11422;SDS011;5768;51.476;7.210;2022-11-15T00:56:47;6.50;;;5.63;;
11422;SDS011;5768;51.476;7.210;2022-11-15T01:01:50;5.97;;;4.73;;
11422;SDS011;5768;51.476;7.210;2022-11-15T01:06:54;5.33;;;4.10;;
11422;SDS011;5768;51.476;7.210;2022-11-15T01:11:56;7.13;;;4.70;;
11422;SDS011;5768;51.476;7.210;2022-11-15T01:16:59;5.32;;;4.68;;
11422;SDS011;5768;51.476;7.210;2022-11-15T01:22:02;7.67;;;4.80;;
11422;SDS011;5768;51.476;7.210;2022-11-15T01:27:04;5.67;;;4.73;;
11422;SDS011;5768;51.476;7.210;2022-11-15T01:32:07;5.10;;;4.60;;
11422;SDS011;5768;51.476;7.210;2022-11-15T01:37:10;5.75;;;4.35;;
11422;SDS011;5768;51.476;7.210;2022-11-15T01:42:13;5.90;;;4.77;;
11422;SDS011;5768;51.476;7.210;2022-11-15T01:47:16;5.53;;;4.90;;
11422;SDS011;5768;51.476;7.210;2022-11-15T01:52:25;5.17;;;4.67;;
11422;SDS011;5768;51.476;7.210;2022-11-15T01:57:31;7.72;;;4.32;;
11422;SDS011;5768;51.476;7.210;2022-11-15T02:02:33;6.38;;;4.95;;
11422;SDS011;5768;51.476;7.210;2022-11-15T02:07:39;6.22;;;4.70;;
11422;SDS011;5768;51.476;7.210;2022-11-15T02:12:42;6.50;;;4.82;;
11422;SDS011;5768;51.476;7.210;2022-11-15T02:17:52;4.83;;;4.33;;
11422;SDS011;5768;51.476;7.210;2022-11-15T02:23:27;6.10;;;4.80;;
11422;SDS011;5768;51.476;7.210;2022-11-15T02:28:53;4.72;;;4.20;;
11422;SDS011;5768;51.476;7.210;2022-11-15T02:34:08;4.90;;;4.28;;
11422;SDS011;5768;51.476;7.210;2022-11-15T02:39:28;5.45;;;4.20;;
11422;SDS011;5768;51.476;7.210;2022-11-15T02:44:39;5.75;;;4.40;;
11422;SDS011;5768;51.476;7.210;2022-11-15T02:49:48;5.32;;;4.13;;
11422;SDS011;5768;51.476;7.210;2022-11-15T02:54:54;5.90;;;4.68;;
11422;SDS011;5768;51.476;7.210;2022-11-15T03:00:01;5.35;;;4.57;;
11422;SDS011;5768;51.476;7.210;2022-11-15T03:05:15;5.77;;;5.17;;
11422;SDS011;5768;51.476;7.210;2022-11-15T03:10:30;7.43;;;5.10;;
11422;SDS011;5768;51.476;7.210;2022-11-15T03:16:02;6.70;;;5.30;;
11422;SDS011;5768;51.476;7.210;2022-11-15T03:21:12;8.80;;;5.57;;
11422;SDS011;5768;51.476;7.210;2022-11-15T03:26:19;7.13;;;5.10;;
11422;SDS011;5768;51.476;7.210;2022-11-15T03:31:28;5.57;;;5.07;;
11422;SDS011;5768;51.476;7.210;2022-11-15T03:36:57;7.93;;;5.00;;
11422;SDS011;5768;51.476;7.210;2022-11-15T03:42:04;6.50;;;5.00;;
11422;SDS011;5768;51.476;7.210;2022-11-15T03:47:19;6.47;;;5.75;;
11422;SDS011;5768;51.476;7.210;2022-11-15T03:52:30;5.20;;;4.70;;
11422;SDS011;5768;51.476;7.210;2022-11-15T03:57:34;6.78;;;4.72;;
11422;SDS011;5768;51.476;7.210;2022-11-15T04:02:37;7.30;;;5.43;;
11422;SDS011;5768;51.476;7.210;2022-11-15T04:07:41;5.30;;;4.80;;
11422;SDS011;5768;51.476;7.210;2022-11-15T04:12:44;5.13;;;4.63;;
11422;SDS011;5768;51.476;7.210;2022-11-15T04:17:49;6.38;;;4.50;;
11422;SDS011;5768;51.476;7.210;2022-11-15T04:22:55;5.45;;;4.47;;
11422;SDS011;5768;51.476;7.210;2022-11-15T04:28:17;5.43;;;4.72;;
11422;SDS011;5768;51.476;7.210;2022-11-15T04:33:20;4.78;;;4.35;;
11422;SDS011;5768;51.476;7.210;2022-11-15T04:38:24;7.22;;;4.35;;
11422;SDS011;5768;51.476;7.210;2022-11-15T04:43:26;5.03;;;4.53;;
11422;SDS011;5768;51.476;7.210;2022-11-15T04:48:29;5.43;;;4.80;;
11422;SDS011;5768;51.476;7.210;2022-11-15T04:53:33;6.15;;;4.78;;
11422;SDS011;5768;51.476;7.210;2022-11-15T04:58:35;7.18;;;4.90;;
11422;SDS011;5768;51.476;7.210;2022-11-15T05:03:37;6.60;;;4.82;;
11422;SDS011;5768;51.476;7.210;2022-11-15T05:08:59;5.05;;;4.57;;
11422;SDS011;5768;51.476;7.210;2022-11-15T05:14:01;5.38;;;4.65;;
11422;SDS011;5768;51.476;7.210;2022-11-15T05:19:03;5.13;;;4.72;;
11422;SDS011;5768;51.476;7.210;2022-11-15T05:24:08;5.97;;;4.77;;
11422;SDS011;5768;51.476;7.210;2022-11-15T05:29:12;5.53;;;5.03;;
11422;SDS011;5768;51.476;7.210;2022-11-15T05:34:15;5.93;;;4.90;;
11422;SDS011;5768;51.476;7.210;2022-11-15T05:39:19;6.68;;;5.05;;
11422;SDS011;5768;51.476;7.210;2022-11-15T05:44:22;5.60;;;5.10;;
11422;SDS011;5768;51.476;7.210;2022-11-15T05:49:27;5.55;;;5.00;;
11422;SDS011;5768;51.476;7.210;2022-11-15T05:54:36;5.20;;;4.78;;
11422;SDS011;5768;51.476;7.210;2022-11-15T05:59:40;5.32;;;4.75;;
11422;SDS011;5768;51.476;7.210;2022-11-15T06:04:44;5.30;;;4.65;;
11422;SDS011;5768;51.476;7.210;2022-11-15T06:09:47;5.18;;;4.68;;
11422;SDS011;5768;51.476;7.210;2022-11-15T06:14:49;5.25;;;4.75;;
11422;SDS011;5768;51.476;7.210;2022-11-15T06:19:51;4.80;;;4.40;;
11422;SDS011;5768;51.476;7.210;2022-11-15T06:24:55;10.18;;;9.20;;
11422;SDS011;5768;51.476;7.210;2022-11-15T06:29:57;4.80;;;4.18;;
11422;SDS011;5768;51.476;7.210;2022-11-15T06:34:59;4.57;;;4.18;;
11422;SDS011;5768;51.476;7.210;2022-11-15T06:40:03;4.45;;;3.70;;
11422;SDS011;5768;51.476;7.210;2022-11-15T06:45:07;12.98;;;4.43;;
11422;SDS011;5768;51.476;7.210;2022-11-15T06:50:10;4.10;;;2.97;;
11422;SDS011;5768;51.476;7.210;2022-11-15T06:55:13;4.45;;;3.80;;
11422;SDS011;5768;51.476;7.210;2022-11-15T07:00:16;6.40;;;3.10;;
11422;SDS011;5768;51.476;7.210;2022-11-15T07:05:22;7.60;;;5.70;;
11422;SDS011;5768;51.476;7.210;2022-11-15T07:10:26;10.65;;;7.95;;
11422;SDS011;5768;51.476;7.210;2022-11-15T07:15:29;6.72;;;5.53;;
11422;SDS011;5768;51.476;7.210;2022-11-15T07:20:31;3.40;;;3.10;;
11422;SDS011;5768;51.476;7.210;2022-11-15T07:25:34;5.75;;;3.63;;
11422;SDS011;5768;51.476;7.210;2022-11-15T07:30:36;3.22;;;2.92;;
11422;SDS011;5768;51.476;7.210;2022-11-15T07:35:38;2.20;;;2.00;;
11422;SDS011;5768;51.476;7.210;2022-11-15T07:40:44;2.60;;;2.30;;
11422;SDS011;5768;51.476;7.210;2022-11-15T07:45:46;2.53;;;2.33;;
11422;SDS011;5768;51.476;7.210;2022-11-15T07:50:48;2.25;;;2.05;;
11422;SDS011;5768;51.476;7.210;2022-11-15T07:55:52;3.00;;;2.72;;
11422;SDS011;5768;51.476;7.210;2022-11-15T08:00:55;2.40;;;2.20;;
11422;SDS011;5768;51.476;7.210;2022-11-15T08:05:57;3.65;;;2.60;;
11422;SDS011;5768;51.476;7.210;2022-11-15T08:11:01;2.30;;;2.10;;
11422;SDS011;5768;51.476;7.210;2022-11-15T08:16:04;1.92;;;1.83;;
11422;SDS011;5768;51.476;7.210;2022-11-15T08:21:08;3.50;;;2.05;;
11422;SDS011;5768;51.476;7.210;2022-11-15T08:26:13;2.55;;;2.33;;
11422;SDS011;5768;51.476;7.210;2022-11-15T08:31:17;4.93;;;4.22;;
11422;SDS011;5768;51.476;7.210;2022-11-15T08:36:20;2.20;;;2.00;;
11422;SDS011;5768;51.476;7.210;2022-11-15T08:41:25;3.63;;;2.90;;
11422;SDS011;5768;51.476;7.210;2022-11-15T08:46:31;3.28;;;2.67;;
11422;SDS011;5768;51.476;7.210;2022-11-15T08:51:34;2.40;;;1.70;;
11422;SDS011;5768;51.476;7.210;2022-11-15T08:56:37;2.50;;;1.80;;
11422;SDS011;5768;51.476;7.210;2022-11-15T09:01:39;1.90;;;1.45;;
11422;SDS011;5768;51.476;7.210;2022-11-15T09:06:42;1.50;;;1.40;;
11422;SDS011;5768;51.476;7.210;2022-11-15T09:11:45;2.22;;;1.67;;
11422;SDS011;5768;51.476;7.210;2022-11-15T09:16:48;1.58;;;1.48;;
11422;SDS011;5768;51.476;7.210;2022-11-15T09:21:50;1.85;;;1.50;;
11422;SDS011;5768;51.476;7.210;2022-11-15T09:26:53;2.72;;;1.90;;
11422;SDS011;5768;51.476;7.210;2022-11-15T09:31:55;1.77;;;1.55;;
11422;SDS011;5768;51.476;7.210;2022-11-15T09:36:58;1.42;;;1.27;;
11422;SDS011;5768;51.476;7.210;2022-11-15T09:42:20;1.35;;;1.25;;
11422;SDS011;5768;51.476;7.210;2022-11-15T09:53:23;3.17;;;1.48;;
11422;SDS011;5768;51.476;7.210;2022-11-15T09:58:36;3.22;;;1.73;;
11422;SDS011;5768;51.476;7.210;2022-11-15T10:03:48;1.70;;;1.30;;
11422;SDS011;5768;51.476;7.210;2022-11-15T10:08:51;2.45;;;1.30;;
11422;SDS011;5768;51.476;7.210;2022-11-15T10:14:04;1.35;;;1.20;;
11422;SDS011;5768;51.476;7.210;2022-11-15T10:19:19;1.30;;;1.00;;
11422;SDS011;5768;51.476;7.210;2022-11-15T10:24:34;1.42;;;1.08;;
11422;SDS011;5768;51.476;7.210;2022-11-15T10:29:48;1.77;;;1.10;;
11422;SDS011;5768;51.476;7.210;2022-11-15T10:34:51;1.15;;;1.00;;
11422;SDS011;5768;51.476;7.210;2022-11-15T10:40:02;2.13;;;1.17;;
11422;SDS011;5768;51.476;7.210;2022-11-15T10:45:13;2.08;;;1.00;;
11422;SDS011;5768;51.476;7.210;2022-11-15T10:50:32;1.58;;;0.95;;
11422;SDS011;5768;51.476;7.210;2022-11-15T10:55:34;3.10;;;2.80;;
11422;SDS011;5768;51.476;7.210;2022-11-15T11:00:50;3.22;;;1.60;;
11422;SDS011;5768;51.476;7.210;2022-11-15T11:06:03;0.90;;;0.90;;
11422;SDS011;5768;51.476;7.210;2022-11-15T11:11:09;1.45;;;1.10;;
11422;SDS011;5768;51.476;7.210;2022-11-15T11:21:47;2.25;;;1.38;;
11422;SDS011;5768;51.476;7.210;2022-11-15T11:27:07;1.27;;;1.05;;
11422;SDS011;5768;51.476;7.210;2022-11-15T11:32:28;1.77;;;1.20;;
11422;SDS011;5768;51.476;7.210;2022-11-15T11:37:49;1.48;;;1.15;;
11422;SDS011;5768;51.476;7.210;2022-11-15T11:42:55;1.45;;;0.95;;
11422;SDS011;5768;51.476;7.210;2022-11-15T11:48:12;1.50;;;1.20;;
11422;SDS011;5768;51.476;7.210;2022-11-15T11:53:21;1.10;;;1.00;;
11422;SDS011;5768;51.476;7.210;2022-11-15T11:58:38;1.95;;;1.13;;
11422;SDS011;5768;51.476;7.210;2022-11-15T12:03:47;2.10;;;1.17;;
11422;SDS011;5768;51.476;7.210;2022-11-15T12:08:58;1.00;;;0.90;;
11422;SDS011;5768;51.476;7.210;2022-11-15T12:14:10;1.48;;;0.90;;
11422;SDS011;5768;51.476;7.210;2022-11-15T12:19:26;1.23;;;1.00;;
11422;SDS011;5768;51.476;7.210;2022-11-15T12:24:32;1.63;;;1.23;;
11422;SDS011;5768;51.476;7.210;2022-11-15T12:29:41;3.92;;;1.15;;
11422;SDS011;5768;51.476;7.210;2022-11-15T12:34:50;2.42;;;0.90;;
11422;SDS011;5768;51.476;7.210;2022-11-15T12:40:05;2.13;;;1.10;;
11422;SDS011;5768;51.476;7.210;2022-11-15T12:45:33;1.48;;;1.20;;
11422;SDS011;5768;51.476;7.210;2022-11-15T12:50:54;1.55;;;0.88;;
11422;SDS011;5768;51.476;7.210;2022-11-15T12:56:09;3.08;;;0.88;;
11422;SDS011;5768;51.476;7.210;2022-11-15T13:12:59;1.83;;;0.98;;
11422;SDS011;5768;51.476;7.210;2022-11-15T13:18:26;1.13;;;0.80;;
11422;SDS011;5768;51.476;7.210;2022-11-15T13:23:55;1.20;;;0.95;;
11422;SDS011;5768;51.476;7.210;2022-11-15T13:28:58;3.05;;;1.50;;
11422;SDS011;5768;51.476;7.210;2022-11-15T13:34:02;1.20;;;1.10;;
11422;SDS011;5768;51.476;7.210;2022-11-15T13:39:27;1.92;;;1.48;;
11422;SDS011;5768;51.476;7.210;2022-11-15T13:44:33;1.60;;;1.10;;
11422;SDS011;5768;51.476;7.210;2022-11-15T13:49:35;2.45;;;1.27;;
11422;SDS011;5768;51.476;7.210;2022-11-15T13:54:40;2.88;;;1.33;;
11422;SDS011;5768;51.476;7.210;2022-11-15T13:59:48;2.13;;;1.10;;
11422;SDS011;5768;51.476;7.210;2022-11-15T14:04:54;3.00;;;1.33;;
11422;SDS011;5768;51.476;7.210;2022-11-15T14:15:30;1.23;;;1.10;;
11422;SDS011;5768;51.476;7.210;2022-11-15T14:20:35;5.35;;;1.20;;
11422;SDS011;5768;51.476;7.210;2022-11-15T14:25:51;2.58;;;1.30;;
11422;SDS011;5768;51.476;7.210;2022-11-15T14:30:55;2.30;;;1.40;;
11422;SDS011;5768;51.476;7.210;2022-11-15T14:36:02;3.25;;;1.38;;
11422;SDS011;5768;51.476;7.210;2022-11-15T14:41:10;3.70;;;1.40;;
11422;SDS011;5768;51.476;7.210;2022-11-15T14:46:21;3.95;;;2.13;;
11422;SDS011;5768;51.476;7.210;2022-11-15T14:51:23;3.05;;;1.77;;
11422;SDS011;5768;51.476;7.210;2022-11-15T14:56:27;3.28;;;1.80;;
11422;SDS011;5768;51.476;7.210;2022-11-15T15:01:30;3.40;;;1.70;;
11422;SDS011;5768;51.476;7.210;2022-11-15T15:06:33;2.22;;;1.60;;
11422;SDS011;5768;51.476;7.210;2022-11-15T15:11:36;2.10;;;1.83;;
11422;SDS011;5768;51.476;7.210;2022-11-15T15:16:38;1.90;;;1.80;;
11422;SDS011;5768;51.476;7.210;2022-11-15T15:21:40;3.33;;;2.38;;
11422;SDS011;5768;51.476;7.210;2022-11-15T15:26:44;3.28;;;2.33;;
11422;SDS011;5768;51.476;7.210;2022-11-15T15:31:46;3.67;;;1.90;;
11422;SDS011;5768;51.476;7.210;2022-11-15T15:36:48;4.20;;;1.90;;
11422;SDS011;5768;51.476;7.210;2022-11-15T15:41:52;2.85;;;1.70;;
11422;SDS011;5768;51.476;7.210;2022-11-15T15:46:54;2.30;;;1.95;;
11422;SDS011;5768;51.476;7.210;2022-11-15T15:51:57;4.20;;;2.80;;
11422;SDS011;5768;51.476;7.210;2022-11-15T15:57:01;2.97;;;1.90;;
11422;SDS011;5768;51.476;7.210;2022-11-15T16:02:03;2.65;;;1.90;;
11422;SDS011;5768;51.476;7.210;2022-11-15T16:07:05;2.22;;;1.65;;
11422;SDS011;5768;51.476;7.210;2022-11-15T16:12:18;2.85;;;1.80;;
11422;SDS011;5768;51.476;7.210;2022-11-15T16:17:21;4.47;;;2.35;;
11422;SDS011;5768;51.476;7.210;2022-11-15T16:22:26;2.63;;;2.00;;
11422;SDS011;5768;51.476;7.210;2022-11-15T16:27:30;1.75;;;1.65;;
11422;SDS011;5768;51.476;7.210;2022-11-15T16:32:32;2.15;;;1.80;;
11422;SDS011;5768;51.476;7.210;2022-11-15T16:37:34;2.00;;;1.80;;
11422;SDS011;5768;51.476;7.210;2022-11-15T16:42:38;3.03;;;2.17;;
11422;SDS011;5768;51.476;7.210;2022-11-15T16:47:40;2.58;;;1.98;;
11422;SDS011;5768;51.476;7.210;2022-11-15T16:52:42;2.83;;;2.25;;
11422;SDS011;5768;51.476;7.210;2022-11-15T16:57:46;2.30;;;2.10;;
11422;SDS011;5768;51.476;7.210;2022-11-15T17:02:49;1.95;;;1.70;;
11422;SDS011;5768;51.476;7.210;2022-11-15T17:07:53;2.65;;;1.75;;
11422;SDS011;5768;51.476;7.210;2022-11-15T17:12:56;3.33;;;2.10;;
11422;SDS011;5768;51.476;7.210;2022-11-15T17:17:58;2.20;;;1.92;;
11422;SDS011;5768;51.476;7.210;2022-11-15T17:23:01;3.97;;;1.90;;
11422;SDS011;5768;51.476;7.210;2022-11-15T17:28:04;1.90;;;1.80;;
11422;SDS011;5768;51.476;7.210;2022-11-15T17:33:07;2.33;;;1.83;;
11422;SDS011;5768;51.476;7.210;2022-11-15T17:38:09;2.05;;;1.70;;
11422;SDS011;5768;51.476;7.210;2022-11-15T17:43:12;3.55;;;1.95;;
11422;SDS011;5768;51.476;7.210;2022-11-15T17:48:15;3.22;;;2.08;;
11422;SDS011;5768;51.476;7.210;2022-11-15T17:53:18;2.40;;;1.90;;
11422;SDS011;5768;51.476;7.210;2022-11-15T17:58:21;3.08;;;1.70;;
11422;SDS011;5768;51.476;7.210;2022-11-15T18:03:23;2.20;;;1.90;;
11422;SDS011;5768;51.476;7.210;2022-11-15T18:08:25;8.05;;;6.00;;
11422;SDS011;5768;51.476;7.210;2022-11-15T18:13:29;12.52;;;10.07;;
11422;SDS011;5768;51.476;7.210;2022-11-15T18:18:32;3.58;;;3.03;;
11422;SDS011;5768;51.476;7.210;2022-11-15T18:23:35;17.10;;;15.40;;
11422;SDS011;5768;51.476;7.210;2022-11-15T18:28:40;3.90;;;3.20;;
11422;SDS011;5768;51.476;7.210;2022-11-15T18:33:45;3.63;;;1.80;;
11422;SDS011;5768;51.476;7.210;2022-11-15T18:38:52;1.95;;;1.80;;
11422;SDS011;5768;51.476;7.210;2022-11-15T18:43:57;2.50;;;1.80;;
11422;SDS011;5768;51.476;7.210;2022-11-15T18:49:01;7.20;;;5.85;;
11422;SDS011;5768;51.476;7.210;2022-11-15T18:54:03;3.67;;;3.25;;
11422;SDS011;5768;51.476;7.210;2022-11-15T18:59:07;2.55;;;2.17;;
11422;SDS011;5768;51.476;7.210;2022-11-15T19:04:10;1.95;;;1.75;;
11422;SDS011;5768;51.476;7.210;2022-11-15T19:09:17;2.80;;;2.05;;
11422;SDS011;5768;51.476;7.210;2022-11-15T19:14:21;1.90;;;1.80;;
11422;SDS011;5768;51.476;7.210;2022-11-15T19:19:26;2.90;;;1.98;;
11422;SDS011;5768;51.476;7.210;2022-11-15T19:24:28;3.30;;;2.58;;
11422;SDS011;5768;51.476;7.210;2022-11-15T19:29:32;2.70;;;2.20;;
11422;SDS011;5768;51.476;7.210;2022-11-15T19:34:34;2.33;;;2.10;;
11422;SDS011;5768;51.476;7.210;2022-11-15T19:39:36;2.55;;;2.00;;
11422;SDS011;5768;51.476;7.210;2022-11-15T19:44:40;2.50;;;2.17;;
11422;SDS011;5768;51.476;7.210;2022-11-15T19:49:42;2.10;;;1.90;;
11422;SDS011;5768;51.476;7.210;2022-11-15T19:54:45;3.13;;;2.00;;
11422;SDS011;5768;51.476;7.210;2022-11-15T19:59:49;2.60;;;2.05;;
11422;SDS011;5768;51.476;7.210;2022-11-15T20:04:51;1.77;;;1.67;;
11422;SDS011;5768;51.476;7.210;2022-11-15T20:09:53;2.17;;;1.98;;
11422;SDS011;5768;51.476;7.210;2022-11-15T20:14:57;2.60;;;2.00;;
11422;SDS011;5768;51.476;7.210;2022-11-15T20:19:59;2.33;;;2.13;;
11422;SDS011;5768;51.476;7.210;2022-11-15T20:25:02;3.08;;;2.40;;
11422;SDS011;5768;51.476;7.210;2022-11-15T20:30:07;2.45;;;2.25;;
11422;SDS011;5768;51.476;7.210;2022-11-15T20:35:11;2.80;;;2.00;;
11422;SDS011;5768;51.476;7.210;2022-11-15T20:40:13;3.50;;;2.20;;
11422;SDS011;5768;51.476;7.210;2022-11-15T20:45:17;4.75;;;2.50;;
11422;SDS011;5768;51.476;7.210;2022-11-15T20:50:19;2.22;;;2.03;;
11422;SDS011;5768;51.476;7.210;2022-11-15T20:55:21;2.55;;;2.35;;
11422;SDS011;5768;51.476;7.210;2022-11-15T21:00:26;3.90;;;2.35;;
11422;SDS011;5768;51.476;7.210;2022-11-15T21:05:28;3.55;;;2.13;;
11422;SDS011;5768;51.476;7.210;2022-11-15T21:10:30;3.08;;;2.78;;
11422;SDS011;5768;51.476;7.210;2022-11-15T21:15:51;3.38;;;2.35;;
11422;SDS011;5768;51.476;7.210;2022-11-15T21:21:00;3.45;;;2.63;;
11422;SDS011;5768;51.476;7.210;2022-11-15T21:26:04;2.83;;;2.53;;
11422;SDS011;5768;51.476;7.210;2022-11-15T21:31:08;2.40;;;2.20;;
11422;SDS011;5768;51.476;7.210;2022-11-15T21:36:10;3.72;;;2.50;;
11422;SDS011;5768;51.476;7.210;2022-11-15T21:41:12;3.17;;;2.30;;
11422;SDS011;5768;51.476;7.210;2022-11-15T21:46:16;3.25;;;2.22;;
11422;SDS011;5768;51.476;7.210;2022-11-15T21:51:19;2.65;;;2.28;;
11422;SDS011;5768;51.476;7.210;2022-11-15T21:56:21;4.20;;;2.30;;
11422;SDS011;5768;51.476;7.210;2022-11-15T22:01:26;2.85;;;2.50;;
11422;SDS011;5768;51.476;7.210;2022-11-15T22:06:46;2.88;;;2.17;;
11422;SDS011;5768;51.476;7.210;2022-11-15T22:11:49;2.00;;;1.80;;
11422;SDS011;5768;51.476;7.210;2022-11-15T22:16:55;2.50;;;2.13;;
11422;SDS011;5768;51.476;7.210;2022-11-15T22:21:58;2.80;;;1.90;;
11422;SDS011;5768;51.476;7.210;2022-11-15T22:27:00;3.88;;;2.20;;
11422;SDS011;5768;51.476;7.210;2022-11-15T22:32:03;2.75;;;2.20;;
11422;SDS011;5768;51.476;7.210;2022-11-15T22:37:05;2.20;;;2.00;;
11422;SDS011;5768;51.476;7.210;2022-11-15T22:42:08;3.75;;;2.30;;
11422;SDS011;5768;51.476;7.210;2022-11-15T22:47:11;3.42;;;2.38;;
11422;SDS011;5768;51.476;7.210;2022-11-15T22:52:13;2.85;;;2.03;;
11422;SDS011;5768;51.476;7.210;2022-11-15T22:57:16;2.35;;;2.15;;
11422;SDS011;5768;51.476;7.210;2022-11-15T23:02:20;2.83;;;2.20;;
11422;SDS011;5768;51.476;7.210;2022-11-15T23:07:22;2.30;;;2.10;;
11422;SDS011;5768;51.476;7.210;2022-11-15T23:12:25;2.60;;;2.40;;
11422;SDS011;5768;51.476;7.210;2022-11-15T23:17:47;2.22;;;2.03;;
11422;SDS011;5768;51.476;7.210;2022-11-15T23:22:49;2.67;;;2.10;;
11422;SDS011;5768;51.476;7.210;2022-11-15T23:27:51;2.53;;;2.10;;
11422;SDS011;5768;51.476;7.210;2022-11-15T23:32:55;2.40;;;2.20;;
11422;SDS011;5768;51.476;7.210;2022-11-15T23:38:15;2.75;;;2.55;;
11422;SDS011;5768;51.476;7.210;2022-11-15T23:43:17;2.60;;;2.40;;
11422;SDS011;5768;51.476;7.210;2022-11-15T23:48:21;2.80;;;2.60;;
11422;SDS011;5768;51.476;7.210;2022-11-15T23:53:24;3.80;;;2.60;;
11422;SDS011;5768;51.476;7.210;2022-11-15T23:58:26;3.58;;;2.60;;
